Decoded Metar for LQBK (BANJA LUKA in BOSNIA-HERCEGOVINA) (IATA:N/A) | Meteo·Mobile Aviation Weather
aviador You're here:

LQBK Decoded Metar

BANJA LUKA in BOSNIA-HERCEGOVINA
Report Time2019-01-18 13:30:00
UTC Time2019-01-18 14:03:09
Flight Rules mvfr MVFR
Wind280° at 06 kt
W.Decomp.*RWY 35: 2.0 kt HW 5.7 kt LCW
W.Rank280° ranks 26
Current wind is above 280° avg. (3.9)
Visibility6000 m
Phenomena:N/A
Clouds:Broken 010 Hf
Overcast 017 Hf
Ceiling1,000 ft
Temp02°C (ISA -12)
Dew Point02°C (100% RH)
AAT-1.8°C
QNH1018 hPa
Density Alt-1,158 ft
Elevation400 ft
Report Wrong Elevation
Raw Report
METAR LQBK 181330Z 28006KT 6000 RASN BKN010 OVC017 02/02 Q1018 NOSIG=

Extra information for LQBK:More info

Metar Taf Metar & Taf Last 4 Metars F.Rules Stats Wind Profile Meteogram Temp Stats Airport Information Weather charts Add Link Nearby VenuesMetar ALERT Operation Metar Decoded Social comments